Old Milo, Arkansas
Current Conditions -  °F | °C
As of 4:15 AM on Thursday 29 Jan 2015 (Local Time) from KBQP Reporting Station
Scattered Clouds Scattered Clouds  
Wind Chill: 55°   Ceiling: Unl
Heat Index: 55°   Visibility: 10mi
Dew Point: 48°   Wind: 10mph
Humidity: 79%   Direction: 200°SSW
Pressure: 30.12"   Gusts: 16mph
Location:  33.1762°N, 91.7595°W
Report Text: KBQP 291015Z AUTO 20009G14KT 10SM SCT110 13/09 A3012 RMK AO2 T01260091
Loading
Personal Weather Stations






























Interactive Weather Map New forecast layout! Learn more

10-Day Weather Forecast

Advertisements
Track Severe Weather on mobile